sensor_id;sensor_type;location;lat;lon;timestamp;P1;durP1;ratioP1;P2;durP2;ratioP2
46116;SDS011;32591;48.102;11.772;2022-11-13T00:01:10;11.52;;;6.07;;
46116;SDS011;32591;48.102;11.772;2022-11-13T00:03:40;18.27;;;6.55;;
46116;SDS011;32591;48.102;11.772;2022-11-13T00:06:07;8.25;;;5.38;;
46116;SDS011;32591;48.102;11.772;2022-11-13T00:08:35;10.35;;;4.90;;
46116;SDS011;32591;48.102;11.772;2022-11-13T00:11:03;9.20;;;5.25;;
46116;SDS011;32591;48.102;11.772;2022-11-13T00:13:34;8.77;;;5.20;;
46116;SDS011;32591;48.102;11.772;2022-11-13T00:16:02;10.70;;;5.32;;
46116;SDS011;32591;48.102;11.772;2022-11-13T00:18:33;10.10;;;4.97;;
46116;SDS011;32591;48.102;11.772;2022-11-13T00:21:03;11.57;;;4.78;;
46116;SDS011;32591;48.102;11.772;2022-11-13T00:23:31;12.77;;;5.13;;
46116;SDS011;32591;48.102;11.772;2022-11-13T00:26:02;8.82;;;4.63;;
46116;SDS011;32591;48.102;11.772;2022-11-13T00:28:30;6.57;;;4.45;;
46116;SDS011;32591;48.102;11.772;2022-11-13T00:30:59;7.82;;;4.68;;
46116;SDS011;32591;48.102;11.772;2022-11-13T00:33:27;7.85;;;5.00;;
46116;SDS011;32591;48.102;11.772;2022-11-13T00:36:00;8.02;;;4.75;;
46116;SDS011;32591;48.102;11.772;2022-11-13T00:38:28;6.38;;;5.13;;
46116;SDS011;32591;48.102;11.772;2022-11-13T00:40:55;9.15;;;4.90;;
46116;SDS011;32591;48.102;11.772;2022-11-13T00:43:23;7.07;;;4.70;;
46116;SDS011;32591;48.102;11.772;2022-11-13T00:45:50;10.38;;;5.70;;
46116;SDS011;32591;48.102;11.772;2022-11-13T00:48:19;9.82;;;6.07;;
46116;SDS011;32591;48.102;11.772;2022-11-13T00:50:46;9.55;;;4.55;;
46116;SDS011;32591;48.102;11.772;2022-11-13T00:53:13;6.80;;;4.65;;
46116;SDS011;32591;48.102;11.772;2022-11-13T00:55:41;6.53;;;4.22;;
46116;SDS011;32591;48.102;11.772;2022-11-13T00:58:08;7.22;;;5.03;;
46116;SDS011;32591;48.102;11.772;2022-11-13T01:00:35;8.52;;;5.18;;
46116;SDS011;32591;48.102;11.772;2022-11-13T01:03:02;9.25;;;5.35;;
46116;SDS011;32591;48.102;11.772;2022-11-13T01:05:31;6.82;;;4.65;;
46116;SDS011;32591;48.102;11.772;2022-11-13T01:08:01;8.30;;;4.95;;
46116;SDS011;32591;48.102;11.772;2022-11-13T01:10:28;9.15;;;5.47;;
46116;SDS011;32591;48.102;11.772;2022-11-13T01:12:56;11.13;;;4.80;;
46116;SDS011;32591;48.102;11.772;2022-11-13T01:15:23;11.38;;;4.82;;
46116;SDS011;32591;48.102;11.772;2022-11-13T01:17:50;7.97;;;5.05;;
46116;SDS011;32591;48.102;11.772;2022-11-13T01:20:19;8.40;;;4.78;;
46116;SDS011;32591;48.102;11.772;2022-11-13T01:22:48;8.15;;;4.43;;
46116;SDS011;32591;48.102;11.772;2022-11-13T01:25:15;16.40;;;4.85;;
46116;SDS011;32591;48.102;11.772;2022-11-13T01:27:43;5.90;;;4.13;;
46116;SDS011;32591;48.102;11.772;2022-11-13T01:30:10;6.18;;;4.03;;
46116;SDS011;32591;48.102;11.772;2022-11-13T01:32:37;6.18;;;3.85;;
46116;SDS011;32591;48.102;11.772;2022-11-13T01:35:04;4.30;;;3.25;;
46116;SDS011;32591;48.102;11.772;2022-11-13T01:37:32;6.32;;;4.53;;
46116;SDS011;32591;48.102;11.772;2022-11-13T01:40:01;6.10;;;4.20;;
46116;SDS011;32591;48.102;11.772;2022-11-13T01:42:30;6.05;;;3.92;;
46116;SDS011;32591;48.102;11.772;2022-11-13T01:44:58;9.00;;;4.60;;
46116;SDS011;32591;48.102;11.772;2022-11-13T01:47:27;7.10;;;4.15;;
46116;SDS011;32591;48.102;11.772;2022-11-13T01:49:55;6.38;;;3.90;;
46116;SDS011;32591;48.102;11.772;2022-11-13T01:52:26;11.15;;;3.70;;
46116;SDS011;32591;48.102;11.772;2022-11-13T01:54:57;5.93;;;3.92;;
46116;SDS011;32591;48.102;11.772;2022-11-13T01:57:29;6.15;;;3.90;;
46116;SDS011;32591;48.102;11.772;2022-11-13T01:59:57;5.70;;;3.70;;
46116;SDS011;32591;48.102;11.772;2022-11-13T02:02:29;5.63;;;3.63;;
46116;SDS011;32591;48.102;11.772;2022-11-13T02:07:23;6.85;;;4.00;;
46116;SDS011;32591;48.102;11.772;2022-11-13T02:09:52;5.80;;;3.78;;
46116;SDS011;32591;48.102;11.772;2022-11-13T02:12:26;8.23;;;4.35;;
46116;SDS011;32591;48.102;11.772;2022-11-13T02:14:58;7.07;;;4.18;;
46116;SDS011;32591;48.102;11.772;2022-11-13T02:17:26;5.70;;;4.18;;
46116;SDS011;32591;48.102;11.772;2022-11-13T02:19:58;5.97;;;4.00;;
46116;SDS011;32591;48.102;11.772;2022-11-13T02:22:30;5.53;;;4.07;;
46116;SDS011;32591;48.102;11.772;2022-11-13T02:25:04;6.80;;;4.35;;
46116;SDS011;32591;48.102;11.772;2022-11-13T02:27:33;6.22;;;3.72;;
46116;SDS011;32591;48.102;11.772;2022-11-13T02:30:10;10.45;;;4.10;;
46116;SDS011;32591;48.102;11.772;2022-11-13T02:32:43;6.72;;;4.07;;
46116;SDS011;32591;48.102;11.772;2022-11-13T02:35:11;7.03;;;4.22;;
46116;SDS011;32591;48.102;11.772;2022-11-13T02:37:41;6.78;;;3.92;;
46116;SDS011;32591;48.102;11.772;2022-11-13T02:40:10;6.28;;;4.07;;
46116;SDS011;32591;48.102;11.772;2022-11-13T02:42:37;5.65;;;3.78;;
46116;SDS011;32591;48.102;11.772;2022-11-13T02:45:05;6.13;;;3.80;;
46116;SDS011;32591;48.102;11.772;2022-11-13T02:47:33;4.85;;;3.90;;
46116;SDS011;32591;48.102;11.772;2022-11-13T02:50:00;14.40;;;4.85;;
46116;SDS011;32591;48.102;11.772;2022-11-13T02:52:29;5.95;;;4.13;;
46116;SDS011;32591;48.102;11.772;2022-11-13T02:54:56;6.40;;;4.82;;
46116;SDS011;32591;48.102;11.772;2022-11-13T02:57:25;7.22;;;4.32;;
46116;SDS011;32591;48.102;11.772;2022-11-13T02:59:52;6.95;;;4.47;;
46116;SDS011;32591;48.102;11.772;2022-11-13T03:02:19;7.20;;;3.90;;
46116;SDS011;32591;48.102;11.772;2022-11-13T03:04:46;7.22;;;4.53;;
46116;SDS011;32591;48.102;11.772;2022-11-13T03:07:13;5.60;;;4.15;;
46116;SDS011;32591;48.102;11.772;2022-11-13T03:09:40;8.13;;;4.63;;
46116;SDS011;32591;48.102;11.772;2022-11-13T03:12:07;7.55;;;4.40;;
46116;SDS011;32591;48.102;11.772;2022-11-13T03:14:36;6.65;;;4.10;;
46116;SDS011;32591;48.102;11.772;2022-11-13T03:17:04;8.48;;;4.30;;
46116;SDS011;32591;48.102;11.772;2022-11-13T03:19:31;7.10;;;4.53;;
46116;SDS011;32591;48.102;11.772;2022-11-13T03:24:25;6.88;;;4.20;;
46116;SDS011;32591;48.102;11.772;2022-11-13T03:26:52;6.72;;;4.47;;
46116;SDS011;32591;48.102;11.772;2022-11-13T03:31:47;7.15;;;4.28;;
46116;SDS011;32591;48.102;11.772;2022-11-13T03:34:14;6.90;;;4.53;;
46116;SDS011;32591;48.102;11.772;2022-11-13T03:39:08;7.67;;;4.33;;
46116;SDS011;32591;48.102;11.772;2022-11-13T03:41:35;7.82;;;5.00;;
46116;SDS011;32591;48.102;11.772;2022-11-13T03:46:29;7.65;;;5.10;;
46116;SDS011;32591;48.102;11.772;2022-11-13T03:48:58;8.95;;;5.00;;
46116;SDS011;32591;48.102;11.772;2022-11-13T03:51:25;5.28;;;3.97;;
46116;SDS011;32591;48.102;11.772;2022-11-13T03:53:52;8.18;;;4.30;;
46116;SDS011;32591;48.102;11.772;2022-11-13T03:56:19;6.38;;;4.45;;
46116;SDS011;32591;48.102;11.772;2022-11-13T03:58:46;6.72;;;4.40;;
46116;SDS011;32591;48.102;11.772;2022-11-13T04:01:13;5.72;;;4.38;;
46116;SDS011;32591;48.102;11.772;2022-11-13T04:06:08;5.57;;;3.88;;
46116;SDS011;32591;48.102;11.772;2022-11-13T04:08:35;8.68;;;4.40;;
46116;SDS011;32591;48.102;11.772;2022-11-13T04:11:06;5.75;;;3.90;;
46116;SDS011;32591;48.102;11.772;2022-11-13T04:13:34;6.40;;;4.13;;
46116;SDS011;32591;48.102;11.772;2022-11-13T04:16:02;9.10;;;4.72;;
46116;SDS011;32591;48.102;11.772;2022-11-13T04:18:30;11.05;;;4.40;;
46116;SDS011;32591;48.102;11.772;2022-11-13T04:20:57;7.07;;;4.65;;
46116;SDS011;32591;48.102;11.772;2022-11-13T04:23:26;7.35;;;4.10;;
46116;SDS011;32591;48.102;11.772;2022-11-13T04:25:54;5.47;;;3.45;;
46116;SDS011;32591;48.102;11.772;2022-11-13T04:28:21;5.40;;;3.90;;
46116;SDS011;32591;48.102;11.772;2022-11-13T04:30:48;5.35;;;3.80;;
46116;SDS011;32591;48.102;11.772;2022-11-13T04:33:18;6.35;;;3.72;;
46116;SDS011;32591;48.102;11.772;2022-11-13T04:35:45;5.25;;;3.88;;
46116;SDS011;32591;48.102;11.772;2022-11-13T04:38:12;6.05;;;3.90;;
46116;SDS011;32591;48.102;11.772;2022-11-13T04:40:41;7.78;;;3.95;;
46116;SDS011;32591;48.102;11.772;2022-11-13T04:43:09;18.27;;;4.75;;
46116;SDS011;32591;48.102;11.772;2022-11-13T04:45:35;17.27;;;4.47;;
46116;SDS011;32591;48.102;11.772;2022-11-13T04:48:02;7.10;;;4.75;;
46116;SDS011;32591;48.102;11.772;2022-11-13T04:50:30;21.85;;;5.65;;
46116;SDS011;32591;48.102;11.772;2022-11-13T04:52:57;6.13;;;4.25;;
46116;SDS011;32591;48.102;11.772;2022-11-13T04:57:53;6.18;;;4.32;;
46116;SDS011;32591;48.102;11.772;2022-11-13T05:00:20;5.70;;;4.13;;
46116;SDS011;32591;48.102;11.772;2022-11-13T05:02:48;6.07;;;4.65;;
46116;SDS011;32591;48.102;11.772;2022-11-13T05:05:15;6.63;;;4.85;;
46116;SDS011;32591;48.102;11.772;2022-11-13T05:07:42;12.82;;;5.15;;
46116;SDS011;32591;48.102;11.772;2022-11-13T05:10:09;8.13;;;4.60;;
46116;SDS011;32591;48.102;11.772;2022-11-13T05:12:36;9.63;;;5.10;;
46116;SDS011;32591;48.102;11.772;2022-11-13T05:15:05;6.43;;;3.90;;
46116;SDS011;32591;48.102;11.772;2022-11-13T05:17:33;6.13;;;4.22;;
46116;SDS011;32591;48.102;11.772;2022-11-13T05:20:00;10.38;;;4.22;;
46116;SDS011;32591;48.102;11.772;2022-11-13T05:24:54;9.68;;;4.88;;
46116;SDS011;32591;48.102;11.772;2022-11-13T05:27:21;5.78;;;4.28;;
46116;SDS011;32591;48.102;11.772;2022-11-13T05:29:48;5.50;;;4.32;;
46116;SDS011;32591;48.102;11.772;2022-11-13T05:32:16;7.68;;;4.30;;
46116;SDS011;32591;48.102;11.772;2022-11-13T05:34:43;6.03;;;4.63;;
46116;SDS011;32591;48.102;11.772;2022-11-13T05:37:11;5.82;;;3.95;;
46116;SDS011;32591;48.102;11.772;2022-11-13T05:39:38;7.93;;;4.18;;
46116;SDS011;32591;48.102;11.772;2022-11-13T05:42:05;7.22;;;4.88;;
46116;SDS011;32591;48.102;11.772;2022-11-13T05:44:32;22.00;;;4.55;;
46116;SDS011;32591;48.102;11.772;2022-11-13T05:46:59;14.63;;;5.20;;
46116;SDS011;32591;48.102;11.772;2022-11-13T05:49:27;5.20;;;3.85;;
46116;SDS011;32591;48.102;11.772;2022-11-13T05:51:54;6.53;;;3.95;;
46116;SDS011;32591;48.102;11.772;2022-11-13T05:54:21;7.53;;;4.88;;
46116;SDS011;32591;48.102;11.772;2022-11-13T05:56:48;6.65;;;4.13;;
46116;SDS011;32591;48.102;11.772;2022-11-13T05:59:15;12.48;;;4.50;;
46116;SDS011;32591;48.102;11.772;2022-11-13T06:01:42;15.35;;;5.47;;
46116;SDS011;32591;48.102;11.772;2022-11-13T06:04:09;16.77;;;5.00;;
46116;SDS011;32591;48.102;11.772;2022-11-13T06:06:38;7.65;;;4.70;;
46116;SDS011;32591;48.102;11.772;2022-11-13T06:09:06;7.25;;;4.68;;
46116;SDS011;32591;48.102;11.772;2022-11-13T06:11:33;11.77;;;5.40;;
46116;SDS011;32591;48.102;11.772;2022-11-13T06:14:00;17.65;;;5.22;;
46116;SDS011;32591;48.102;11.772;2022-11-13T06:16:27;12.63;;;4.63;;
46116;SDS011;32591;48.102;11.772;2022-11-13T06:19:00;21.42;;;5.38;;
46116;SDS011;32591;48.102;11.772;2022-11-13T06:21:30;11.60;;;4.50;;
46116;SDS011;32591;48.102;11.772;2022-11-13T06:24:00;12.48;;;4.57;;
46116;SDS011;32591;48.102;11.772;2022-11-13T06:26:28;6.13;;;4.53;;
46116;SDS011;32591;48.102;11.772;2022-11-13T06:28:58;12.07;;;4.50;;
46116;SDS011;32591;48.102;11.772;2022-11-13T06:31:27;7.07;;;4.55;;
46116;SDS011;32591;48.102;11.772;2022-11-13T06:33:56;6.45;;;4.63;;
46116;SDS011;32591;48.102;11.772;2022-11-13T06:36:25;6.65;;;4.28;;
46116;SDS011;32591;48.102;11.772;2022-11-13T06:38:53;6.53;;;4.20;;
46116;SDS011;32591;48.102;11.772;2022-11-13T06:41:23;16.25;;;4.88;;
46116;SDS011;32591;48.102;11.772;2022-11-13T06:43:53;8.63;;;4.93;;
46116;SDS011;32591;48.102;11.772;2022-11-13T06:46:21;5.93;;;3.72;;
46116;SDS011;32591;48.102;11.772;2022-11-13T06:48:51;8.10;;;4.40;;
46116;SDS011;32591;48.102;11.772;2022-11-13T06:51:20;9.30;;;4.50;;
46116;SDS011;32591;48.102;11.772;2022-11-13T06:53:49;9.10;;;5.13;;
46116;SDS011;32591;48.102;11.772;2022-11-13T06:56:17;6.40;;;4.53;;
46116;SDS011;32591;48.102;11.772;2022-11-13T06:58:46;5.53;;;4.03;;
46116;SDS011;32591;48.102;11.772;2022-11-13T07:01:13;6.50;;;4.32;;
46116;SDS011;32591;48.102;11.772;2022-11-13T07:03:42;8.98;;;4.80;;
46116;SDS011;32591;48.102;11.772;2022-11-13T07:06:10;7.82;;;4.63;;
46116;SDS011;32591;48.102;11.772;2022-11-13T07:08:39;5.95;;;3.83;;
46116;SDS011;32591;48.102;11.772;2022-11-13T07:11:08;5.85;;;4.35;;
46116;SDS011;32591;48.102;11.772;2022-11-13T07:13:37;7.35;;;4.40;;
46116;SDS011;32591;48.102;11.772;2022-11-13T07:16:07;6.28;;;4.20;;
46116;SDS011;32591;48.102;11.772;2022-11-13T07:18:35;12.68;;;4.00;;
46116;SDS011;32591;48.102;11.772;2022-11-13T07:21:03;10.57;;;4.18;;
46116;SDS011;32591;48.102;11.772;2022-11-13T07:23:32;6.18;;;3.55;;
46116;SDS011;32591;48.102;11.772;2022-11-13T07:26:03;8.02;;;4.55;;
46116;SDS011;32591;48.102;11.772;2022-11-13T07:28:31;22.27;;;5.35;;
46116;SDS011;32591;48.102;11.772;2022-11-13T07:30:59;6.22;;;3.97;;
46116;SDS011;32591;48.102;11.772;2022-11-13T07:33:27;5.25;;;3.40;;
46116;SDS011;32591;48.102;11.772;2022-11-13T07:35:55;13.80;;;3.75;;
46116;SDS011;32591;48.102;11.772;2022-11-13T07:38:22;5.18;;;3.90;;
46116;SDS011;32591;48.102;11.772;2022-11-13T07:40:49;12.23;;;6.88;;
46116;SDS011;32591;48.102;11.772;2022-11-13T07:43:16;7.30;;;5.70;;
46116;SDS011;32591;48.102;11.772;2022-11-13T07:45:43;7.40;;;4.82;;
46116;SDS011;32591;48.102;11.772;2022-11-13T07:48:11;6.60;;;4.50;;
46116;SDS011;32591;48.102;11.772;2022-11-13T07:50:40;6.55;;;4.35;;
46116;SDS011;32591;48.102;11.772;2022-11-13T07:53:07;5.78;;;3.90;;
46116;SDS011;32591;48.102;11.772;2022-11-13T07:55:35;5.88;;;3.60;;
46116;SDS011;32591;48.102;11.772;2022-11-13T07:58:03;6.28;;;4.10;;
46116;SDS011;32591;48.102;11.772;2022-11-13T08:00:31;6.32;;;4.13;;
46116;SDS011;32591;48.102;11.772;2022-11-13T08:03:03;8.60;;;5.43;;
46116;SDS011;32591;48.102;11.772;2022-11-13T08:05:31;7.53;;;4.50;;
46116;SDS011;32591;48.102;11.772;2022-11-13T08:08:00;8.43;;;4.93;;
46116;SDS011;32591;48.102;11.772;2022-11-13T08:10:27;13.02;;;4.60;;
46116;SDS011;32591;48.102;11.772;2022-11-13T08:12:59;10.02;;;4.10;;
46116;SDS011;32591;48.102;11.772;2022-11-13T08:15:28;7.25;;;4.10;;
46116;SDS011;32591;48.102;11.772;2022-11-13T08:17:56;6.50;;;3.97;;
46116;SDS011;32591;48.102;11.772;2022-11-13T08:20:25;6.70;;;4.22;;
46116;SDS011;32591;48.102;11.772;2022-11-13T08:22:55;6.03;;;4.00;;
46116;SDS011;32591;48.102;11.772;2022-11-13T08:25:24;7.53;;;5.22;;
46116;SDS011;32591;48.102;11.772;2022-11-13T08:27:53;7.60;;;4.10;;
46116;SDS011;32591;48.102;11.772;2022-11-13T08:30:21;8.05;;;5.00;;
46116;SDS011;32591;48.102;11.772;2022-11-13T08:32:51;8.98;;;5.95;;
46116;SDS011;32591;48.102;11.772;2022-11-13T08:35:18;7.45;;;4.97;;
46116;SDS011;32591;48.102;11.772;2022-11-13T08:37:45;7.72;;;5.07;;
46116;SDS011;32591;48.102;11.772;2022-11-13T08:40:12;5.95;;;4.38;;
46116;SDS011;32591;48.102;11.772;2022-11-13T08:42:41;7.45;;;4.63;;
46116;SDS011;32591;48.102;11.772;2022-11-13T08:45:09;9.05;;;4.95;;
46116;SDS011;32591;48.102;11.772;2022-11-13T08:47:36;7.88;;;5.13;;
46116;SDS011;32591;48.102;11.772;2022-11-13T08:50:04;6.40;;;4.18;;
46116;SDS011;32591;48.102;11.772;2022-11-13T08:52:32;8.88;;;5.13;;
46116;SDS011;32591;48.102;11.772;2022-11-13T08:54:59;8.10;;;6.22;;
46116;SDS011;32591;48.102;11.772;2022-11-13T08:57:26;10.77;;;5.93;;
46116;SDS011;32591;48.102;11.772;2022-11-13T09:02:21;11.10;;;6.53;;
46116;SDS011;32591;48.102;11.772;2022-11-13T09:04:49;13.05;;;6.70;;
46116;SDS011;32591;48.102;11.772;2022-11-13T09:07:16;10.45;;;5.97;;
46116;SDS011;32591;48.102;11.772;2022-11-13T09:09:43;9.07;;;6.22;;
46116;SDS011;32591;48.102;11.772;2022-11-13T09:12:10;9.65;;;5.82;;
46116;SDS011;32591;48.102;11.772;2022-11-13T09:17:05;9.25;;;6.30;;
46116;SDS011;32591;48.102;11.772;2022-11-13T09:19:32;8.65;;;5.72;;
46116;SDS011;32591;48.102;11.772;2022-11-13T09:21:59;8.07;;;5.32;;
46116;SDS011;32591;48.102;11.772;2022-11-13T09:24:26;8.10;;;5.63;;
46116;SDS011;32591;48.102;11.772;2022-11-13T09:26:53;8.40;;;6.07;;
46116;SDS011;32591;48.102;11.772;2022-11-13T09:29:20;9.02;;;5.72;;
46116;SDS011;32591;48.102;11.772;2022-11-13T09:31:50;9.10;;;5.88;;
46116;SDS011;32591;48.102;11.772;2022-11-13T09:34:19;9.25;;;6.10;;
46116;SDS011;32591;48.102;11.772;2022-11-13T09:36:46;8.75;;;6.05;;
46116;SDS011;32591;48.102;11.772;2022-11-13T09:39:13;9.30;;;6.50;;
46116;SDS011;32591;48.102;11.772;2022-11-13T09:41:42;8.82;;;6.20;;
46116;SDS011;32591;48.102;11.772;2022-11-13T09:44:14;9.82;;;6.40;;
46116;SDS011;32591;48.102;11.772;2022-11-13T09:46:46;11.48;;;7.05;;
46116;SDS011;32591;48.102;11.772;2022-11-13T09:49:20;10.60;;;6.03;;
46116;SDS011;32591;48.102;11.772;2022-11-13T09:51:52;9.55;;;5.85;;
46116;SDS011;32591;48.102;11.772;2022-11-13T09:54:21;10.65;;;6.90;;
46116;SDS011;32591;48.102;11.772;2022-11-13T09:56:50;9.90;;;7.25;;
46116;SDS011;32591;48.102;11.772;2022-11-13T09:59:24;13.15;;;7.22;;
46116;SDS011;32591;48.102;11.772;2022-11-13T10:01:57;8.85;;;6.68;;
46116;SDS011;32591;48.102;11.772;2022-11-13T10:04:33;11.85;;;8.65;;
46116;SDS011;32591;48.102;11.772;2022-11-13T10:07:22;14.05;;;8.02;;
46116;SDS011;32591;48.102;11.772;2022-11-13T10:10:00;14.43;;;8.15;;
46116;SDS011;32591;48.102;11.772;2022-11-13T10:12:45;15.40;;;8.10;;
46116;SDS011;32591;48.102;11.772;2022-11-13T10:15:17;16.88;;;8.30;;
46116;SDS011;32591;48.102;11.772;2022-11-13T10:17:47;12.98;;;7.53;;
46116;SDS011;32591;48.102;11.772;2022-11-13T10:20:20;15.85;;;8.38;;
46116;SDS011;32591;48.102;11.772;2022-11-13T10:22:52;13.77;;;7.57;;
46116;SDS011;32591;48.102;11.772;2022-11-13T10:25:24;12.32;;;7.70;;
46116;SDS011;32591;48.102;11.772;2022-11-13T10:27:57;15.90;;;7.95;;
46116;SDS011;32591;48.102;11.772;2022-11-13T10:30:27;16.33;;;8.30;;
46116;SDS011;32591;48.102;11.772;2022-11-13T10:33:00;15.55;;;8.68;;
46116;SDS011;32591;48.102;11.772;2022-11-13T10:38:25;12.45;;;7.82;;
46116;SDS011;32591;48.102;11.772;2022-11-13T10:41:06;12.68;;;8.63;;
46116;SDS011;32591;48.102;11.772;2022-11-13T10:43:49;17.52;;;9.23;;
46116;SDS011;32591;48.102;11.772;2022-11-13T10:46:20;15.30;;;9.15;;
46116;SDS011;32591;48.102;11.772;2022-11-13T10:48:49;17.65;;;9.38;;
46116;SDS011;32591;48.102;11.772;2022-11-13T10:51:20;14.77;;;9.32;;
46116;SDS011;32591;48.102;11.772;2022-11-13T10:53:49;15.15;;;9.88;;
46116;SDS011;32591;48.102;11.772;2022-11-13T10:56:21;14.15;;;9.15;;
46116;SDS011;32591;48.102;11.772;2022-11-13T10:59:03;17.08;;;10.23;;
46116;SDS011;32591;48.102;11.772;2022-11-13T11:01:38;15.75;;;8.82;;
46116;SDS011;32591;48.102;11.772;2022-11-13T11:04:13;13.60;;;8.32;;
46116;SDS011;32591;48.102;11.772;2022-11-13T11:06:49;12.18;;;7.68;;
46116;SDS011;32591;48.102;11.772;2022-11-13T11:09:19;13.18;;;8.27;;
46116;SDS011;32591;48.102;11.772;2022-11-13T11:14:40;12.93;;;7.95;;
46116;SDS011;32591;48.102;11.772;2022-11-13T11:17:28;13.60;;;9.55;;
46116;SDS011;32591;48.102;11.772;2022-11-13T11:20:03;15.45;;;9.90;;
46116;SDS011;32591;48.102;11.772;2022-11-13T11:22:36;10.77;;;7.20;;
46116;SDS011;32591;48.102;11.772;2022-11-13T11:25:08;12.10;;;7.65;;
46116;SDS011;32591;48.102;11.772;2022-11-13T11:27:42;14.20;;;8.52;;
46116;SDS011;32591;48.102;11.772;2022-11-13T11:30:16;11.50;;;7.68;;
46116;SDS011;32591;48.102;11.772;2022-11-13T11:32:48;15.05;;;8.32;;
46116;SDS011;32591;48.102;11.772;2022-11-13T11:35:23;15.38;;;8.88;;
46116;SDS011;32591;48.102;11.772;2022-11-13T11:38:00;12.65;;;7.93;;
46116;SDS011;32591;48.102;11.772;2022-11-13T11:40:39;14.07;;;8.43;;
46116;SDS011;32591;48.102;11.772;2022-11-13T11:43:11;14.73;;;8.55;;
46116;SDS011;32591;48.102;11.772;2022-11-13T11:48:13;13.70;;;8.15;;
46116;SDS011;32591;48.102;11.772;2022-11-13T11:50:43;13.50;;;8.15;;
46116;SDS011;32591;48.102;11.772;2022-11-13T11:53:19;11.80;;;7.72;;
46116;SDS011;32591;48.102;11.772;2022-11-13T11:56:03;14.68;;;8.13;;
46116;SDS011;32591;48.102;11.772;2022-11-13T12:02:32;16.25;;;8.98;;
46116;SDS011;32591;48.102;11.772;2022-11-13T12:05:35;14.93;;;9.38;;
46116;SDS011;32591;48.102;11.772;2022-11-13T12:08:14;14.32;;;8.38;;
46116;SDS011;32591;48.102;11.772;2022-11-13T12:10:56;11.07;;;6.60;;
46116;SDS011;32591;48.102;11.772;2022-11-13T12:13:29;12.13;;;7.25;;
46116;SDS011;32591;48.102;11.772;2022-11-13T12:16:01;11.65;;;5.95;;
46116;SDS011;32591;48.102;11.772;2022-11-13T12:18:39;9.10;;;5.85;;
46116;SDS011;32591;48.102;11.772;2022-11-13T12:21:20;11.45;;;6.40;;
46116;SDS011;32591;48.102;11.772;2022-11-13T12:23:54;9.20;;;5.40;;
46116;SDS011;32591;48.102;11.772;2022-11-13T12:26:45;8.27;;;5.22;;
46116;SDS011;32591;48.102;11.772;2022-11-13T12:29:22;8.80;;;5.47;;
46116;SDS011;32591;48.102;11.772;2022-11-13T12:32:06;9.20;;;5.35;;
46116;SDS011;32591;48.102;11.772;2022-11-13T12:34:49;8.57;;;5.82;;
46116;SDS011;32591;48.102;11.772;2022-11-13T12:37:21;10.40;;;5.97;;
46116;SDS011;32591;48.102;11.772;2022-11-13T12:39:55;9.75;;;5.97;;
46116;SDS011;32591;48.102;11.772;2022-11-13T12:42:28;8.30;;;5.10;;
46116;SDS011;32591;48.102;11.772;2022-11-13T12:45:01;8.30;;;5.85;;
46116;SDS011;32591;48.102;11.772;2022-11-13T12:47:39;10.52;;;6.15;;
46116;SDS011;32591;48.102;11.772;2022-11-13T12:50:24;7.45;;;4.55;;
46116;SDS011;32591;48.102;11.772;2022-11-13T12:52:58;7.60;;;5.53;;
46116;SDS011;32591;48.102;11.772;2022-11-13T12:55:29;6.65;;;4.88;;
46116;SDS011;32591;48.102;11.772;2022-11-13T12:58:04;8.10;;;5.28;;
46116;SDS011;32591;48.102;11.772;2022-11-13T13:00:35;7.90;;;5.03;;
46116;SDS011;32591;48.102;11.772;2022-11-13T13:03:16;9.00;;;5.68;;
46116;SDS011;32591;48.102;11.772;2022-11-13T13:06:02;8.00;;;5.18;;
46116;SDS011;32591;48.102;11.772;2022-11-13T13:08:51;8.55;;;5.63;;
46116;SDS011;32591;48.102;11.772;2022-11-13T13:11:36;9.25;;;5.72;;
46116;SDS011;32591;48.102;11.772;2022-11-13T13:14:21;8.30;;;5.00;;
46116;SDS011;32591;48.102;11.772;2022-11-13T13:17:05;8.82;;;5.20;;
46116;SDS011;32591;48.102;11.772;2022-11-13T13:19:43;8.13;;;4.70;;
46116;SDS011;32591;48.102;11.772;2022-11-13T13:22:22;7.75;;;5.05;;
46116;SDS011;32591;48.102;11.772;2022-11-13T13:24:59;9.18;;;5.20;;
46116;SDS011;32591;48.102;11.772;2022-11-13T13:27:31;8.57;;;5.10;;
46116;SDS011;32591;48.102;11.772;2022-11-13T13:30:16;7.60;;;4.53;;
46116;SDS011;32591;48.102;11.772;2022-11-13T13:32:48;8.02;;;5.28;;
46116;SDS011;32591;48.102;11.772;2022-11-13T13:35:26;6.25;;;4.57;;
46116;SDS011;32591;48.102;11.772;2022-11-13T13:38:02;5.30;;;4.13;;
46116;SDS011;32591;48.102;11.772;2022-11-13T13:43:21;7.65;;;4.70;;
46116;SDS011;32591;48.102;11.772;2022-11-13T13:46:04;6.05;;;4.65;;
46116;SDS011;32591;48.102;11.772;2022-11-13T13:48:40;8.18;;;5.28;;
46116;SDS011;32591;48.102;11.772;2022-11-13T13:51:22;7.60;;;5.05;;
46116;SDS011;32591;48.102;11.772;2022-11-13T13:53:53;9.02;;;4.70;;
46116;SDS011;32591;48.102;11.772;2022-11-13T13:56:24;7.88;;;4.85;;
46116;SDS011;32591;48.102;11.772;2022-11-13T13:58:53;7.32;;;4.97;;
46116;SDS011;32591;48.102;11.772;2022-11-13T14:01:27;7.68;;;5.20;;
46116;SDS011;32591;48.102;11.772;2022-11-13T14:04:03;6.38;;;4.75;;
46116;SDS011;32591;48.102;11.772;2022-11-13T14:06:45;8.57;;;5.13;;
46116;SDS011;32591;48.102;11.772;2022-11-13T14:09:16;8.27;;;5.18;;
46116;SDS011;32591;48.102;11.772;2022-11-13T14:11:45;8.02;;;5.53;;
46116;SDS011;32591;48.102;11.772;2022-11-13T14:14:19;8.85;;;5.88;;
46116;SDS011;32591;48.102;11.772;2022-11-13T14:16:47;8.57;;;5.40;;
46116;SDS011;32591;48.102;11.772;2022-11-13T14:19:16;9.35;;;5.82;;
46116;SDS011;32591;48.102;11.772;2022-11-13T14:21:44;6.25;;;4.68;;
46116;SDS011;32591;48.102;11.772;2022-11-13T14:24:15;8.30;;;5.35;;
46116;SDS011;32591;48.102;11.772;2022-11-13T14:26:52;7.47;;;5.55;;
46116;SDS011;32591;48.102;11.772;2022-11-13T14:29:25;8.93;;;5.60;;
46116;SDS011;32591;48.102;11.772;2022-11-13T14:32:03;9.75;;;5.50;;
46116;SDS011;32591;48.102;11.772;2022-11-13T14:34:35;7.85;;;5.43;;
46116;SDS011;32591;48.102;11.772;2022-11-13T14:37:05;7.35;;;5.88;;
46116;SDS011;32591;48.102;11.772;2022-11-13T14:39:43;8.70;;;5.88;;
46116;SDS011;32591;48.102;11.772;2022-11-13T14:42:14;8.40;;;5.88;;
46116;SDS011;32591;48.102;11.772;2022-11-13T14:44:46;8.80;;;5.70;;
46116;SDS011;32591;48.102;11.772;2022-11-13T14:47:20;8.52;;;5.35;;
46116;SDS011;32591;48.102;11.772;2022-11-13T14:49:50;8.50;;;5.65;;
46116;SDS011;32591;48.102;11.772;2022-11-13T14:52:21;8.60;;;6.07;;
46116;SDS011;32591;48.102;11.772;2022-11-13T14:54:59;8.27;;;5.53;;
46116;SDS011;32591;48.102;11.772;2022-11-13T14:57:29;10.25;;;6.35;;
46116;SDS011;32591;48.102;11.772;2022-11-13T14:59:57;8.82;;;6.10;;
46116;SDS011;32591;48.102;11.772;2022-11-13T15:02:37;8.93;;;6.10;;
46116;SDS011;32591;48.102;11.772;2022-11-13T15:05:04;8.85;;;5.95;;
46116;SDS011;32591;48.102;11.772;2022-11-13T15:07:32;9.30;;;6.28;;
46116;SDS011;32591;48.102;11.772;2022-11-13T15:10:07;8.98;;;6.68;;
46116;SDS011;32591;48.102;11.772;2022-11-13T15:12:38;8.43;;;5.90;;
46116;SDS011;32591;48.102;11.772;2022-11-13T15:15:07;8.27;;;6.15;;
46116;SDS011;32591;48.102;11.772;2022-11-13T15:17:39;9.82;;;5.90;;
46116;SDS011;32591;48.102;11.772;2022-11-13T15:20:08;9.82;;;6.30;;
46116;SDS011;32591;48.102;11.772;2022-11-13T15:22:39;11.68;;;7.28;;
46116;SDS011;32591;48.102;11.772;2022-11-13T15:25:10;10.63;;;7.47;;
46116;SDS011;32591;48.102;11.772;2022-11-13T15:27:39;10.57;;;6.90;;
46116;SDS011;32591;48.102;11.772;2022-11-13T15:30:08;11.65;;;7.88;;